sensor_id;sensor_type;location;lat;lon;timestamp;temperature;humidity
69281;SHT31;56392;51.082;17.080;2023-02-01T00:01:57;3.51;85.37
69281;SHT31;56392;51.082;17.080;2023-02-01T00:07:21;3.54;85.33
69281;SHT31;56392;51.082;17.080;2023-02-01T00:12:44;3.54;85.40
69281;SHT31;56392;51.082;17.080;2023-02-01T00:18:09;3.55;85.60
69281;SHT31;56392;51.082;17.080;2023-02-01T00:23:32;3.56;85.37
69281;SHT31;56392;51.082;17.080;2023-02-01T00:28:55;3.62;85.44
69281;SHT31;56392;51.082;17.080;2023-02-01T00:34:20;3.62;85.66
69281;SHT31;56392;51.082;17.080;2023-02-01T00:39:43;3.69;85.54
69281;SHT31;56392;51.082;17.080;2023-02-01T00:45:07;3.69;85.71
69281;SHT31;56392;51.082;17.080;2023-02-01T00:50:32;3.69;85.54
69281;SHT31;56392;51.082;17.080;2023-02-01T00:55:55;3.67;85.90
69281;SHT31;56392;51.082;17.080;2023-02-01T01:01:20;3.72;85.89
69281;SHT31;56392;51.082;17.080;2023-02-01T01:06:45;3.73;85.77
69281;SHT31;56392;51.082;17.080;2023-02-01T01:12:08;3.75;85.72
69281;SHT31;56392;51.082;17.080;2023-02-01T01:17:31;3.79;85.91
69281;SHT31;56392;51.082;17.080;2023-02-01T01:22:56;3.80;85.89
69281;SHT31;56392;51.082;17.080;2023-02-01T01:28:19;3.82;85.58
69281;SHT31;56392;51.082;17.080;2023-02-01T01:33:42;3.85;85.65
69281;SHT31;56392;51.082;17.080;2023-02-01T01:39:07;3.82;86.04
69281;SHT31;56392;51.082;17.080;2023-02-01T01:44:59;3.72;85.04
69281;SHT31;56392;51.082;17.080;2023-02-01T01:50:26;3.70;84.89
69281;SHT31;56392;51.082;17.080;2023-02-01T01:55:53;3.66;85.02
69281;SHT31;56392;51.082;17.080;2023-02-01T02:01:17;3.58;86.02
69281;SHT31;56392;51.082;17.080;2023-02-01T02:06:45;3.58;86.18
69281;SHT31;56392;51.082;17.080;2023-02-01T02:12:11;3.66;86.16
69281;SHT31;56392;51.082;17.080;2023-02-01T02:17:38;3.60;86.10
69281;SHT31;56392;51.082;17.080;2023-02-01T02:23:30;3.73;86.51
69281;SHT31;56392;51.082;17.080;2023-02-01T02:29:25;3.72;85.96
69281;SHT31;56392;51.082;17.080;2023-02-01T02:34:54;3.77;86.40
69281;SHT31;56392;51.082;17.080;2023-02-01T02:40:24;3.80;86.12
69281;SHT31;56392;51.082;17.080;2023-02-01T02:45:51;3.85;86.30
69281;SHT31;56392;51.082;17.080;2023-02-01T02:51:37;3.90;86.15
69281;SHT31;56392;51.082;17.080;2023-02-01T02:57:20;3.93;85.09
69281;SHT31;56392;51.082;17.080;2023-02-01T03:03:03;3.98;85.38
69281;SHT31;56392;51.082;17.080;2023-02-01T03:08:45;4.01;84.11
69281;SHT31;56392;51.082;17.080;2023-02-01T03:14:08;4.04;84.52
69281;SHT31;56392;51.082;17.080;2023-02-01T03:19:37;4.03;84.53
69281;SHT31;56392;51.082;17.080;2023-02-01T03:25:10;4.04;84.06
69281;SHT31;56392;51.082;17.080;2023-02-01T03:30:37;4.06;83.42
69281;SHT31;56392;51.082;17.080;2023-02-01T03:36:12;4.07;83.64
69281;SHT31;56392;51.082;17.080;2023-02-01T03:41:41;4.08;83.42
69281;SHT31;56392;51.082;17.080;2023-02-01T03:47:06;4.14;83.11
69281;SHT31;56392;51.082;17.080;2023-02-01T03:52:36;4.17;82.41
69281;SHT31;56392;51.082;17.080;2023-02-01T03:58:06;4.17;81.19
69281;SHT31;56392;51.082;17.080;2023-02-01T04:03:29;4.24;81.31
69281;SHT31;56392;51.082;17.080;2023-02-01T04:08:53;4.28;80.61
69281;SHT31;56392;51.082;17.080;2023-02-01T04:14:18;4.27;80.43
69281;SHT31;56392;51.082;17.080;2023-02-01T04:19:41;4.27;79.95
69281;SHT31;56392;51.082;17.080;2023-02-01T04:25:05;4.22;80.04
69281;SHT31;56392;51.082;17.080;2023-02-01T04:30:32;4.22;79.89
69281;SHT31;56392;51.082;17.080;2023-02-01T04:35:56;4.21;80.87
69281;SHT31;56392;51.082;17.080;2023-02-01T04:41:19;4.21;79.97
69281;SHT31;56392;51.082;17.080;2023-02-01T04:46:46;4.25;79.86
69281;SHT31;56392;51.082;17.080;2023-02-01T04:52:09;4.27;80.00
69281;SHT31;56392;51.082;17.080;2023-02-01T04:57:32;4.33;80.08
69281;SHT31;56392;51.082;17.080;2023-02-01T05:02:56;4.37;80.23
69281;SHT31;56392;51.082;17.080;2023-02-01T05:08:19;4.41;79.67
69281;SHT31;56392;51.082;17.080;2023-02-01T05:13:43;4.45;79.58
69281;SHT31;56392;51.082;17.080;2023-02-01T05:19:14;4.45;78.54
69281;SHT31;56392;51.082;17.080;2023-02-01T05:24:37;4.52;79.38
69281;SHT31;56392;51.082;17.080;2023-02-01T05:30:00;4.52;78.39
69281;SHT31;56392;51.082;17.080;2023-02-01T05:35:27;4.55;78.88
69281;SHT31;56392;51.082;17.080;2023-02-01T05:40:50;4.58;78.52
69281;SHT31;56392;51.082;17.080;2023-02-01T05:46:13;4.58;78.52
69281;SHT31;56392;51.082;17.080;2023-02-01T05:51:38;4.61;77.88
69281;SHT31;56392;51.082;17.080;2023-02-01T05:57:01;4.58;77.90
69281;SHT31;56392;51.082;17.080;2023-02-01T06:02:24;4.58;77.53
69281;SHT31;56392;51.082;17.080;2023-02-01T06:07:51;4.61;77.57
69281;SHT31;56392;51.082;17.080;2023-02-01T06:13:15;4.65;77.59
69281;SHT31;56392;51.082;17.080;2023-02-01T06:18:38;4.71;77.51
69281;SHT31;56392;51.082;17.080;2023-02-01T06:24:04;4.71;76.49
69281;SHT31;56392;51.082;17.080;2023-02-01T06:29:28;4.76;76.86
69281;SHT31;56392;51.082;17.080;2023-02-01T06:34:51;4.79;76.71
69281;SHT31;56392;51.082;17.080;2023-02-01T06:40:17;4.83;77.41
69281;SHT31;56392;51.082;17.080;2023-02-01T06:45:40;4.88;77.53
69281;SHT31;56392;51.082;17.080;2023-02-01T06:51:04;4.89;76.53
69281;SHT31;56392;51.082;17.080;2023-02-01T06:56:29;4.92;76.74
69281;SHT31;56392;51.082;17.080;2023-02-01T07:01:53;4.95;76.85
69281;SHT31;56392;51.082;17.080;2023-02-01T07:07:17;4.93;77.14
69281;SHT31;56392;51.082;17.080;2023-02-01T07:12:42;4.97;76.65
69281;SHT31;56392;51.082;17.080;2023-02-01T07:18:05;4.97;77.20
69281;SHT31;56392;51.082;17.080;2023-02-01T07:23:28;5.03;76.89
69281;SHT31;56392;51.082;17.080;2023-02-01T07:28:53;5.05;76.47
69281;SHT31;56392;51.082;17.080;2023-02-01T07:34:16;5.03;76.76
69281;SHT31;56392;51.082;17.080;2023-02-01T07:39:40;5.09;76.41
69281;SHT31;56392;51.082;17.080;2023-02-01T07:45:06;5.12;76.46
69281;SHT31;56392;51.082;17.080;2023-02-01T07:50:30;5.15;76.77
69281;SHT31;56392;51.082;17.080;2023-02-01T07:55:54;5.15;76.60
69281;SHT31;56392;51.082;17.080;2023-02-01T08:01:22;5.20;76.36
69281;SHT31;56392;51.082;17.080;2023-02-01T08:06:46;5.23;76.63
69281;SHT31;56392;51.082;17.080;2023-02-01T08:12:09;5.30;75.98
69281;SHT31;56392;51.082;17.080;2023-02-01T08:17:33;5.33;76.61
69281;SHT31;56392;51.082;17.080;2023-02-01T08:22:56;5.34;76.88
69281;SHT31;56392;51.082;17.080;2023-02-01T08:28:19;5.36;77.18
69281;SHT31;56392;51.082;17.080;2023-02-01T08:33:50;5.40;76.25
69281;SHT31;56392;51.082;17.080;2023-02-01T08:39:16;5.44;76.65
69281;SHT31;56392;51.082;17.080;2023-02-01T08:44:39;5.50;76.69
69281;SHT31;56392;51.082;17.080;2023-02-01T08:50:06;5.54;77.12
69281;SHT31;56392;51.082;17.080;2023-02-01T08:55:30;5.55;76.82
69281;SHT31;56392;51.082;17.080;2023-02-01T09:00:53;5.57;76.38
69281;SHT31;56392;51.082;17.080;2023-02-01T09:06:18;5.52;76.58
69281;SHT31;56392;51.082;17.080;2023-02-01T09:11:41;5.52;77.92
69281;SHT31;56392;51.082;17.080;2023-02-01T09:17:04;5.46;78.46
69281;SHT31;56392;51.082;17.080;2023-02-01T09:22:29;5.47;78.76
69281;SHT31;56392;51.082;17.080;2023-02-01T09:27:52;5.50;78.42
69281;SHT31;56392;51.082;17.080;2023-02-01T09:33:16;5.52;78.14
69281;SHT31;56392;51.082;17.080;2023-02-01T09:38:40;5.65;77.79
69281;SHT31;56392;51.082;17.080;2023-02-01T09:44:08;5.70;77.66
69281;SHT31;56392;51.082;17.080;2023-02-01T09:49:39;5.74;77.47
69281;SHT31;56392;51.082;17.080;2023-02-01T09:55:13;5.77;77.12
69281;SHT31;56392;51.082;17.080;2023-02-01T10:00:40;5.78;76.40
69281;SHT31;56392;51.082;17.080;2023-02-01T10:06:25;5.79;77.26
69281;SHT31;56392;51.082;17.080;2023-02-01T10:12:06;5.88;76.45
69281;SHT31;56392;51.082;17.080;2023-02-01T10:17:46;5.89;76.37
69281;SHT31;56392;51.082;17.080;2023-02-01T10:23:31;5.95;76.40
69281;SHT31;56392;51.082;17.080;2023-02-01T10:29:00;6.05;76.47
69281;SHT31;56392;51.082;17.080;2023-02-01T10:34:26;6.06;75.65
69281;SHT31;56392;51.082;17.080;2023-02-01T10:39:55;6.12;75.58
69281;SHT31;56392;51.082;17.080;2023-02-01T10:45:23;6.13;75.26
69281;SHT31;56392;51.082;17.080;2023-02-01T10:50:53;6.13;74.89
69281;SHT31;56392;51.082;17.080;2023-02-01T10:56:22;6.22;75.16
69281;SHT31;56392;51.082;17.080;2023-02-01T11:01:57;6.26;75.65
69281;SHT31;56392;51.082;17.080;2023-02-01T11:07:23;6.30;75.24
69281;SHT31;56392;51.082;17.080;2023-02-01T11:12:53;6.25;76.26
69281;SHT31;56392;51.082;17.080;2023-02-01T11:18:19;6.20;76.93
69281;SHT31;56392;51.082;17.080;2023-02-01T11:23:44;6.09;76.19
69281;SHT31;56392;51.082;17.080;2023-02-01T11:29:11;6.09;77.73
69281;SHT31;56392;51.082;17.080;2023-02-01T11:34:38;6.06;77.46
69281;SHT31;56392;51.082;17.080;2023-02-01T11:40:23;6.05;77.79
69281;SHT31;56392;51.082;17.080;2023-02-01T11:45:55;6.03;78.43
69281;SHT31;56392;51.082;17.080;2023-02-01T11:51:31;5.97;77.56
69281;SHT31;56392;51.082;17.080;2023-02-01T11:57:06;5.91;78.23
69281;SHT31;56392;51.082;17.080;2023-02-01T12:02:46;5.85;78.83
69281;SHT31;56392;51.082;17.080;2023-02-01T12:08:27;5.81;79.20
69281;SHT31;56392;51.082;17.080;2023-02-01T12:14:07;5.81;79.65
69281;SHT31;56392;51.082;17.080;2023-02-01T12:25:38;5.75;79.85
69281;SHT31;56392;51.082;17.080;2023-02-01T12:37:07;5.71;79.39
69281;SHT31;56392;51.082;17.080;2023-02-01T12:42:40;5.72;79.64
69281;SHT31;56392;51.082;17.080;2023-02-01T12:48:19;5.68;79.62
69281;SHT31;56392;51.082;17.080;2023-02-01T12:53:50;5.61;79.98
69281;SHT31;56392;51.082;17.080;2023-02-01T12:59:20;5.62;80.56
69281;SHT31;56392;51.082;17.080;2023-02-01T13:04:55;5.62;80.63
69281;SHT31;56392;51.082;17.080;2023-02-01T13:10:26;5.68;80.69
69281;SHT31;56392;51.082;17.080;2023-02-01T13:15:58;5.78;80.71
69281;SHT31;56392;51.082;17.080;2023-02-01T13:21:27;5.85;80.83
69281;SHT31;56392;51.082;17.080;2023-02-01T13:26:53;5.87;80.70
69281;SHT31;56392;51.082;17.080;2023-02-01T13:32:37;5.92;80.33
69281;SHT31;56392;51.082;17.080;2023-02-01T13:38:20;5.91;80.03
69281;SHT31;56392;51.082;17.080;2023-02-01T13:43:51;5.94;79.60
69281;SHT31;56392;51.082;17.080;2023-02-01T13:49:20;5.89;79.87
69281;SHT31;56392;51.082;17.080;2023-02-01T13:54:43;5.91;79.86
69281;SHT31;56392;51.082;17.080;2023-02-01T14:00:23;5.87;80.72
69281;SHT31;56392;51.082;17.080;2023-02-01T14:06:32;5.92;81.69
69281;SHT31;56392;51.082;17.080;2023-02-01T14:11:57;5.91;81.68
69281;SHT31;56392;51.082;17.080;2023-02-01T14:17:32;5.89;81.30
69281;SHT31;56392;51.082;17.080;2023-02-01T14:23:09;5.87;81.16
69281;SHT31;56392;51.082;17.080;2023-02-01T14:28:38;5.75;81.41
69281;SHT31;56392;51.082;17.080;2023-02-01T14:34:14;5.75;81.99
69281;SHT31;56392;51.082;17.080;2023-02-01T14:39:53;5.65;82.12
69281;SHT31;56392;51.082;17.080;2023-02-01T14:45:48;5.67;81.95
69281;SHT31;56392;51.082;17.080;2023-02-01T14:51:14;5.67;81.90
69281;SHT31;56392;51.082;17.080;2023-02-01T14:56:40;5.71;81.63
69281;SHT31;56392;51.082;17.080;2023-02-01T15:02:17;5.67;81.16
69281;SHT31;56392;51.082;17.080;2023-02-01T15:07:41;5.71;80.85
69281;SHT31;56392;51.082;17.080;2023-02-01T15:13:17;5.71;80.69
69281;SHT31;56392;51.082;17.080;2023-02-01T15:18:41;5.72;79.89
69281;SHT31;56392;51.082;17.080;2023-02-01T15:24:11;5.67;79.78
69281;SHT31;56392;51.082;17.080;2023-02-01T15:29:36;5.68;79.78
69281;SHT31;56392;51.082;17.080;2023-02-01T15:35:00;5.62;79.77
69281;SHT31;56392;51.082;17.080;2023-02-01T15:40:24;5.61;79.73
69281;SHT31;56392;51.082;17.080;2023-02-01T15:45:49;5.65;79.55
69281;SHT31;56392;51.082;17.080;2023-02-01T15:51:16;5.65;79.41
69281;SHT31;56392;51.082;17.080;2023-02-01T15:56:41;5.60;78.60
69281;SHT31;56392;51.082;17.080;2023-02-01T16:02:25;5.61;79.28
69281;SHT31;56392;51.082;17.080;2023-02-01T16:07:56;5.60;78.55
69281;SHT31;56392;51.082;17.080;2023-02-01T16:13:25;5.60;78.91
69281;SHT31;56392;51.082;17.080;2023-02-01T16:18:50;5.54;79.08
69281;SHT31;56392;51.082;17.080;2023-02-01T16:24:13;5.47;78.56
69281;SHT31;56392;51.082;17.080;2023-02-01T16:29:36;5.38;79.11
69281;SHT31;56392;51.082;17.080;2023-02-01T16:35:00;5.40;79.29
69281;SHT31;56392;51.082;17.080;2023-02-01T16:40:24;5.36;79.15
69281;SHT31;56392;51.082;17.080;2023-02-01T16:45:49;5.34;79.78
69281;SHT31;56392;51.082;17.080;2023-02-01T16:51:14;5.34;79.40
69281;SHT31;56392;51.082;17.080;2023-02-01T16:56:40;5.36;79.23
69281;SHT31;56392;51.082;17.080;2023-02-01T17:02:03;5.30;79.33
69281;SHT31;56392;51.082;17.080;2023-02-01T17:07:29;5.27;79.50
69281;SHT31;56392;51.082;17.080;2023-02-01T17:12:53;5.24;79.84
69281;SHT31;56392;51.082;17.080;2023-02-01T17:18:17;5.24;79.65
69281;SHT31;56392;51.082;17.080;2023-02-01T17:23:42;5.24;79.28
69281;SHT31;56392;51.082;17.080;2023-02-01T17:29:05;5.20;79.62
69281;SHT31;56392;51.082;17.080;2023-02-01T17:34:28;5.15;79.49
69281;SHT31;56392;51.082;17.080;2023-02-01T17:39:53;5.07;79.30
69281;SHT31;56392;51.082;17.080;2023-02-01T17:45:32;5.05;79.59
69281;SHT31;56392;51.082;17.080;2023-02-01T17:50:57;5.05;79.17
69281;SHT31;56392;51.082;17.080;2023-02-01T17:56:23;5.01;78.30
69281;SHT31;56392;51.082;17.080;2023-02-01T18:01:49;5.09;78.30
69281;SHT31;56392;51.082;17.080;2023-02-01T18:07:14;5.10;78.43
69281;SHT31;56392;51.082;17.080;2023-02-01T18:12:38;5.15;77.37
69281;SHT31;56392;51.082;17.080;2023-02-01T18:18:02;5.17;77.48
69281;SHT31;56392;51.082;17.080;2023-02-01T18:23:25;5.26;77.92
69281;SHT31;56392;51.082;17.080;2023-02-01T18:28:49;5.29;77.81
69281;SHT31;56392;51.082;17.080;2023-02-01T18:34:13;5.31;77.14
69281;SHT31;56392;51.082;17.080;2023-02-01T18:39:41;5.36;77.97
69281;SHT31;56392;51.082;17.080;2023-02-01T18:45:19;5.30;78.59
69281;SHT31;56392;51.082;17.080;2023-02-01T18:50:44;5.29;78.87
69281;SHT31;56392;51.082;17.080;2023-02-01T18:56:10;5.29;78.64
69281;SHT31;56392;51.082;17.080;2023-02-01T19:01:35;5.27;78.58
69281;SHT31;56392;51.082;17.080;2023-02-01T19:06:58;5.29;78.49
69281;SHT31;56392;51.082;17.080;2023-02-01T19:12:21;5.31;78.38
69281;SHT31;56392;51.082;17.080;2023-02-01T19:17:47;5.33;78.18
69281;SHT31;56392;51.082;17.080;2023-02-01T19:23:11;5.33;77.66
69281;SHT31;56392;51.082;17.080;2023-02-01T19:28:35;5.36;77.73
69281;SHT31;56392;51.082;17.080;2023-02-01T19:34:00;5.31;77.47
69281;SHT31;56392;51.082;17.080;2023-02-01T19:39:23;5.34;77.31
69281;SHT31;56392;51.082;17.080;2023-02-01T19:44:46;5.34;76.70
69281;SHT31;56392;51.082;17.080;2023-02-01T19:50:15;5.38;76.51
69281;SHT31;56392;51.082;17.080;2023-02-01T19:55:43;5.38;75.86
69281;SHT31;56392;51.082;17.080;2023-02-01T20:01:07;5.29;77.09
69281;SHT31;56392;51.082;17.080;2023-02-01T20:06:38;5.31;78.35
69281;SHT31;56392;51.082;17.080;2023-02-01T20:12:01;5.20;79.74
69281;SHT31;56392;51.082;17.080;2023-02-01T20:17:25;5.12;80.20
69281;SHT31;56392;51.082;17.080;2023-02-01T20:22:51;4.96;81.26
69281;SHT31;56392;51.082;17.080;2023-02-01T20:28:14;4.76;81.80
69281;SHT31;56392;51.082;17.080;2023-02-01T20:33:37;4.55;82.35
69281;SHT31;56392;51.082;17.080;2023-02-01T20:39:09;4.40;82.79
69281;SHT31;56392;51.082;17.080;2023-02-01T20:44:33;4.33;82.93
69281;SHT31;56392;51.082;17.080;2023-02-01T20:49:58;4.28;82.67
69281;SHT31;56392;51.082;17.080;2023-02-01T20:55:23;4.21;83.30
69281;SHT31;56392;51.082;17.080;2023-02-01T21:00:47;4.20;83.33
69281;SHT31;56392;51.082;17.080;2023-02-01T21:06:11;4.06;83.67
69281;SHT31;56392;51.082;17.080;2023-02-01T21:11:35;4.03;83.44
69281;SHT31;56392;51.082;17.080;2023-02-01T21:16:58;3.94;84.21
69281;SHT31;56392;51.082;17.080;2023-02-01T21:22:21;3.91;84.18
69281;SHT31;56392;51.082;17.080;2023-02-01T21:27:46;3.93;84.48
69281;SHT31;56392;51.082;17.080;2023-02-01T21:33:09;3.90;84.62
69281;SHT31;56392;51.082;17.080;2023-02-01T21:38:33;3.94;84.81
69281;SHT31;56392;51.082;17.080;2023-02-01T21:43:58;3.91;84.93
69281;SHT31;56392;51.082;17.080;2023-02-01T21:49:21;3.96;85.11
69281;SHT31;56392;51.082;17.080;2023-02-01T21:54:46;3.97;85.02
69281;SHT31;56392;51.082;17.080;2023-02-01T22:00:12;3.97;85.22
69281;SHT31;56392;51.082;17.080;2023-02-01T22:05:35;3.91;85.14
69281;SHT31;56392;51.082;17.080;2023-02-01T22:10:58;3.98;85.38
69281;SHT31;56392;51.082;17.080;2023-02-01T22:16:23;4.04;85.43
69281;SHT31;56392;51.082;17.080;2023-02-01T22:21:47;4.10;85.39
69281;SHT31;56392;51.082;17.080;2023-02-01T22:27:11;4.11;85.23
69281;SHT31;56392;51.082;17.080;2023-02-01T22:32:35;4.14;85.49
69281;SHT31;56392;51.082;17.080;2023-02-01T22:37:58;4.10;85.95
69281;SHT31;56392;51.082;17.080;2023-02-01T22:43:21;4.20;85.62
69281;SHT31;56392;51.082;17.080;2023-02-01T22:48:46;4.25;85.79
69281;SHT31;56392;51.082;17.080;2023-02-01T22:54:14;4.25;85.97
69281;SHT31;56392;51.082;17.080;2023-02-01T22:59:38;4.33;85.86
69281;SHT31;56392;51.082;17.080;2023-02-01T23:05:03;4.34;85.78
69281;SHT31;56392;51.082;17.080;2023-02-01T23:10:26;4.33;85.59
69281;SHT31;56392;51.082;17.080;2023-02-01T23:15:49;4.37;85.57
69281;SHT31;56392;51.082;17.080;2023-02-01T23:21:15;4.44;85.40
69281;SHT31;56392;51.082;17.080;2023-02-01T23:26:39;4.41;85.22
69281;SHT31;56392;51.082;17.080;2023-02-01T23:32:04;4.38;85.43
69281;SHT31;56392;51.082;17.080;2023-02-01T23:37:29;4.41;85.35
69281;SHT31;56392;51.082;17.080;2023-02-01T23:42:52;4.47;84.95
69281;SHT31;56392;51.082;17.080;2023-02-01T23:48:29;4.54;84.90
69281;SHT31;56392;51.082;17.080;2023-02-01T23:53:54;4.45;84.57
69281;SHT31;56392;51.082;17.080;2023-02-01T23:59:18;4.45;84.46
